Time;durP1;ratioP1;P1;durP2;ratioP2;P2;SDS_P1;SDS_P2;PMS_P1;PMS_P2;Temp;Humidity;BMP_temperature;BMP_pressure;BME280_temperature;BME280_humidity;BME280_pressure;Samples;Min_cycle;Max_cycle;Signal;HPM_P1;HPM_P2
2023/12/25 00:04:02;;;;;;;11.40;7.23;;;;;;;14.61;40.71;99510.56;10398473;28;20241;-75
2023/12/25 00:09:03;;;;;;;2.50;2.30;;;;;;;14.46;40.88;99486.63;10404332;28;20233;-74
2023/12/25 00:14:05;;;;;;;3.70;2.03;;;;;;;13.00;42.71;99528.22;10403822;28;20240;-76
2023/12/25 00:19:07;;;;;;;1.97;1.87;;;;;;;14.72;41.06;99457.84;10417832;28;20232;-77
2023/12/25 00:24:09;;;;;;;2.43;2.23;;;;;;;13.81;42.06;99498.31;10401830;28;20326;-76
2023/12/25 00:29:11;;;;;;;2.60;2.20;;;;;;;13.95;41.36;99595.09;10407641;28;20228;-72
2023/12/25 00:34:13;;;;;;;5.40;3.83;;;;;;;13.88;41.86;99554.75;10407241;28;20286;-72
2023/12/25 00:39:14;;;;;;;3.10;2.70;;;;;;;13.97;42.43;99470.13;10395729;28;20224;-76
2023/12/25 00:44:16;;;;;;;3.47;3.17;;;;;;;13.82;42.33;99512.59;10399557;28;20243;-74
2023/12/25 00:49:19;;;;;;;3.67;2.20;;;;;;;13.87;42.57;99479.66;10404861;28;20725;-74
2023/12/25 00:54:21;;;;;;;1.93;1.83;;;;;;;13.99;42.18;99497.63;10404207;28;20239;-72
2023/12/25 00:59:23;;;;;;;2.60;1.80;;;;;;;13.73;42.42;99498.53;10406342;28;20267;-71
2023/12/25 01:04:24;;;;;;;2.77;2.57;;;;;;;14.39;41.45;99516.28;10404789;28;20619;-71
2023/12/25 01:09:26;;;;;;;3.27;2.03;;;;;;;13.53;42.21;99557.75;10405577;28;20327;-72
2023/12/25 01:14:28;;;;;;;2.57;2.37;;;;;;;14.28;42.33;99403.09;10404098;28;20323;-70
2023/12/25 01:19:29;;;;;;;3.50;2.40;;;;;;;14.44;41.53;99487.88;10405455;28;20718;-70
2023/12/25 01:24:31;;;;;;;2.57;2.37;;;;;;;13.75;41.68;99518.00;10394857;28;20619;-71
2023/12/25 01:29:33;;;;;;;2.50;2.10;;;;;;;13.51;42.74;99405.78;10395365;28;20240;-71
2023/12/25 01:34:34;;;;;;;2.27;2.10;;;;;;;14.09;41.98;99427.25;10404317;28;20609;-68
2023/12/25 01:39:36;;;;;;;2.10;2.00;;;;;;;13.83;42.34;99447.00;10407148;28;20291;-69
2023/12/25 01:44:38;;;;;;;2.40;2.20;;;;;;;15.00;41.00;99389.22;10405343;28;20948;-69
2023/12/25 01:49:40;;;;;;;1.80;1.70;;;;;;;13.83;42.36;99463.97;10400802;28;20233;-69
2023/12/25 01:54:44;;;;;;;2.37;1.97;;;;;;;13.08;43.07;99491.22;10401392;28;20315;-70
2023/12/25 01:59:46;;;;;;;1.80;1.70;;;;;;;12.86;43.05;99514.78;10404538;28;20231;-69
2023/12/25 02:04:48;;;;;;;2.00;1.80;;;;;;;12.80;43.28;99537.06;10405739;28;20818;-69
2023/12/25 02:09:50;;;;;;;1.90;1.80;;;;;;;14.48;42.07;99341.84;10401045;28;20715;-69
2023/12/25 02:14:51;;;;;;;2.33;2.23;;;;;;;13.72;41.73;99539.13;10411660;28;20223;-71
2023/12/25 02:19:53;;;;;;;2.07;1.97;;;;;;;13.27;42.57;99523.66;10405894;28;20256;-70
2023/12/25 02:25:01;;;;;;;2.13;2.03;;;;;;;12.80;43.94;99469.13;10391751;28;20312;-70
2023/12/25 02:30:03;;;;;;;2.30;2.13;;;;;;;14.00;42.32;99402.44;10403710;28;20302;-68
2023/12/25 02:35:05;;;;;;;3.47;2.43;;;;;;;13.75;42.97;99402.38;10404760;28;20327;-68
2023/12/25 02:40:08;;;;;;;2.20;2.00;;;;;;;14.58;41.65;99405.97;10404153;28;20717;-70
2023/12/25 02:45:09;;;;;;;1.97;1.87;;;;;;;13.72;42.83;99392.03;10408929;28;20248;-70
2023/12/25 02:50:11;;;;;;;1.97;1.87;;;;;;;14.01;42.57;99430.16;10404003;28;20673;-70
2023/12/25 02:55:13;;;;;;;2.20;2.00;;;;;;;13.95;42.45;99468.66;10406172;28;20744;-70
2023/12/25 03:00:15;;;;;;;1.80;1.70;;;;;;;14.65;42.11;99389.75;10402551;28;20408;-70
2023/12/25 03:05:16;;;;;;;1.80;1.70;;;;;;;14.11;41.71;99508.56;10402518;28;20228;-70
2023/12/25 03:10:18;;;;;;;2.10;2.00;;;;;;;14.05;41.95;99420.59;10403191;28;20232;-70
2023/12/25 03:15:20;;;;;;;2.10;2.00;;;;;;;13.50;42.53;99498.19;10406581;28;20224;-70
2023/12/25 03:20:24;;;;;;;2.47;2.20;;;;;;;13.27;42.21;99548.66;10404377;28;20256;-70
2023/12/25 03:25:26;;;;;;;2.43;2.27;;;;;;;14.28;41.24;99465.00;10400857;28;20514;-70
2023/12/25 03:30:28;;;;;;;2.07;1.97;;;;;;;12.78;43.05;99535.63;10405174;28;20346;-70
2023/12/25 03:35:29;;;;;;;2.23;2.13;;;;;;;14.42;40.81;99469.25;10403367;28;20236;-70
2023/12/25 03:40:33;;;;;;;2.07;1.93;;;;;;;13.62;41.82;99461.56;10393682;28;20244;-70
2023/12/25 03:45:35;;;;;;;1.90;1.80;;;;;;;14.72;40.61;99471.31;10404710;28;20243;-69
2023/12/25 03:50:37;;;;;;;1.50;1.40;;;;;;;13.23;41.65;99608.41;10410315;28;20305;-70
2023/12/25 03:55:39;;;;;;;2.00;1.83;;;;;;;13.29;42.45;99495.56;10404350;28;20216;-72
2023/12/25 04:00:40;;;;;;;1.67;1.60;;;;;;;13.68;42.33;99460.72;10406553;28;20233;-70
2023/12/25 04:05:42;;;;;;;2.97;2.23;;;;;;;14.59;41.17;99459.63;10412676;28;20235;-70
2023/12/25 04:10:44;;;;;;;2.00;1.90;;;;;;;14.34;41.30;99439.91;10408673;28;20228;-70
2023/12/25 04:15:45;;;;;;;1.90;1.80;;;;;;;13.28;42.05;99565.66;10409589;28;20253;-68
2023/12/25 04:20:47;;;;;;;1.90;1.80;;;;;;;14.37;41.03;99445.69;10404000;28;20312;-70
2023/12/25 04:25:49;;;;;;;1.80;1.70;;;;;;;13.80;41.92;99483.22;10410846;28;20234;-70
2023/12/25 04:30:51;;;;;;;2.00;1.90;;;;;;;14.29;40.85;99467.50;10408462;28;20247;-70
2023/12/25 04:35:53;;;;;;;2.27;2.10;;;;;;;14.32;40.39;99549.66;10407843;28;20225;-69
2023/12/25 04:40:54;;;;;;;1.70;1.60;;;;;;;14.69;40.52;99467.19;10406562;28;20231;-69
2023/12/25 04:45:56;;;;;;;2.20;2.10;;;;;;;14.28;40.28;99592.31;10408402;28;20255;-69
2023/12/25 04:51:02;;;;;;;1.80;1.70;;;;;;;14.68;40.38;99505.94;10395359;28;20308;-69
2023/12/25 04:56:04;;;;;;;1.93;1.83;;;;;;;13.89;41.27;99494.56;10404032;28;20220;-70
2023/12/25 05:01:06;;;;;;;2.80;2.00;;;;;;;13.87;40.86;99612.28;10406115;28;20263;-70
2023/12/25 05:06:08;;;;;;;2.00;1.90;;;;;;;12.98;42.08;99571.38;10404646;28;20765;-70
2023/12/25 05:11:10;;;;;;;1.80;1.70;;;;;;;14.21;41.44;99449.72;10390761;28;20241;-70
2023/12/25 05:16:11;;;;;;;2.40;2.10;;;;;;;13.54;42.50;99435.75;10406852;28;20714;-69
2023/12/25 05:21:13;;;;;;;2.00;1.90;;;;;;;13.64;41.06;99575.91;10403666;28;20812;-70
2023/12/25 05:26:15;;;;;;;2.20;1.97;;;;;;;13.61;41.86;99484.94;10404923;28;20279;-70
2023/12/25 05:31:16;;;;;;;1.90;1.80;;;;;;;14.71;40.60;99483.97;10388843;28;20329;-70
2023/12/25 05:36:18;;;;;;;2.53;2.33;;;;;;;13.56;41.64;99459.72;10406289;28;20311;-70
2023/12/25 05:41:20;;;;;;;2.00;1.90;;;;;;;13.35;41.41;99576.38;10402561;28;20328;-70
2023/12/25 05:46:21;;;;;;;1.80;1.70;;;;;;;14.72;40.56;99385.94;10406534;28;20301;-70
2023/12/25 05:51:23;;;;;;;2.37;2.23;;;;;;;13.01;41.45;99605.91;10390541;28;20239;-70
2023/12/25 05:56:25;;;;;;;2.37;2.00;;;;;;;14.25;40.93;99462.75;10399524;28;21187;-70
2023/12/25 06:01:26;;;;;;;2.20;2.00;;;;;;;13.77;40.86;99537.44;10399067;28;20228;-70
2023/12/25 06:06:28;;;;;;;2.70;1.87;;;;;;;14.56;39.88;99556.13;10398851;28;20330;-69
2023/12/25 06:11:30;;;;;;;1.70;1.60;;;;;;;13.64;41.79;99425.34;10402761;28;20264;-69
2023/12/25 06:16:33;;;;;;;2.13;2.03;;;;;;;13.91;40.52;99462.88;10398873;28;20232;-70
2023/12/25 06:21:34;;;;;;;1.93;1.83;;;;;;;13.94;40.32;99504.69;10398868;28;20912;-71
2023/12/25 06:26:36;;;;;;;2.10;1.77;;;;;;;14.69;39.55;99479.81;10400231;28;20259;-68
2023/12/25 06:31:38;;;;;;;4.43;2.80;;;;;;;13.04;41.44;99490.00;10401124;28;20641;-69
2023/12/25 06:36:39;;;;;;;2.47;1.83;;;;;;;13.78;40.32;99543.63;10401324;28;20232;-69
2023/12/25 06:41:41;;;;;;;2.13;1.93;;;;;;;13.20;40.37;99533.59;10394409;28;20234;-68
2023/12/25 06:46:43;;;;;;;3.17;1.97;;;;;;;14.91;38.87;99485.69;10383619;28;20727;-70
2023/12/25 06:51:45;;;;;;;2.20;2.10;;;;;;;14.08;39.48;99557.41;10397419;28;20282;-68
2023/12/25 06:56:47;;;;;;;2.03;1.60;;;;;;;13.52;39.70;99580.28;10395664;28;20707;-70
2023/12/25 07:01:48;;;;;;;2.30;2.10;;;;;;;14.26;39.47;99519.03;10414110;22;20257;-36
2023/12/25 07:06:50;;;;;;;1.90;1.70;;;;;;;13.33;39.80;99603.47;10391889;28;20228;-36
2023/12/25 07:11:52;;;;;;;2.63;2.20;;;;;;;12.01;40.94;99597.47;10389111;28;20242;-36
2023/12/25 07:16:54;;;;;;;1.83;1.73;;;;;;;12.44;40.73;99589.22;10390060;23;20223;-75
2023/12/25 07:21:55;;;;;;;2.83;2.03;;;;;;;12.84;41.37;99454.25;10375621;28;20257;-74
2023/12/25 07:26:57;;;;;;;3.50;2.03;;;;;;;14.18;39.99;99415.16;10371150;28;20260;-76
2023/12/25 07:31:59;;;;;;;2.50;2.30;;;;;;;13.28;40.87;99467.03;10358382;28;20328;-75
2023/12/25 07:37:02;;;;;;;1.90;1.80;;;;;;;12.79;41.54;99473.69;10368222;28;20217;-76
2023/12/25 07:42:03;;;;;;;2.60;2.40;;;;;;;13.00;40.88;99566.63;10374046;28;20256;-76
2023/12/25 07:47:06;;;;;;;3.63;2.30;;;;;;;14.72;39.56;99482.91;10354155;28;20271;-75
2023/12/25 07:52:07;;;;;;;2.10;1.80;;;;;;;14.62;39.94;99463.72;10366393;28;20237;-76
2023/12/25 07:57:09;;;;;;;2.50;2.30;;;;;;;12.25;42.24;99592.63;10362709;28;20295;-76
2023/12/25 08:02:11;;;;;;;2.40;2.30;;;;;;;12.40;41.84;99616.66;10359143;28;20272;-75
2023/12/25 08:07:12;;;;;;;1.93;1.70;;;;;;;13.98;40.36;99501.34;10367581;28;20316;-76
2023/12/25 08:12:15;;;;;;;2.43;1.90;;;;;;;13.75;40.01;99565.56;10363504;28;20232;-74
2023/12/25 08:17:17;;;;;;;1.73;1.63;;;;;;;11.16;43.07;99489.56;10352877;28;20620;-74
2023/12/25 08:22:19;;;;;;;2.30;2.10;;;;;;;12.65;40.82;99582.06;10364653;28;20229;-76
2023/12/25 08:27:20;;;;;;;1.87;1.77;;;;;;;11.54;42.80;99524.00;10362252;28;21744;-74
2023/12/25 08:32:22;;;;;;;2.67;2.47;;;;;;;11.92;40.83;99697.91;10354129;28;20304;-76
2023/12/25 08:37:24;;;;;;;2.07;1.97;;;;;;;11.64;42.22;99537.88;10368240;28;20225;-74
2023/12/25 08:42:26;;;;;;;2.00;1.90;;;;;;;13.22;42.19;99442.84;10363336;28;20240;-71
2023/12/25 08:47:27;;;;;;;2.40;2.20;;;;;;;10.44;44.78;99599.19;10351486;28;20239;-72
2023/12/25 08:52:29;;;;;;;2.23;2.03;;;;;;;11.56;44.18;99579.06;10360776;28;20237;-71
2023/12/25 08:57:35;;;;;;;2.03;1.93;;;;;;;13.21;42.68;99479.63;10361519;28;20817;-74
2023/12/25 09:02:37;;;;;;;1.97;1.87;;;;;;;11.49;44.98;99555.91;10354812;28;20292;-73
2023/12/25 09:07:39;;;;;;;2.70;2.47;;;;;;;11.23;45.28;99659.16;10362756;28;20312;-71
2023/12/25 09:12:40;;;;;;;2.43;2.30;;;;;;;13.05;44.27;99477.38;10367972;28;20282;-72
2023/12/25 09:17:42;;;;;;;2.10;2.00;;;;;;;11.41;47.38;99450.56;10356764;28;20749;-73
2023/12/25 09:22:44;;;;;;;2.20;2.10;;;;;;;11.15;48.08;99428.97;10362567;28;20824;-71
2023/12/25 09:27:46;;;;;;;2.30;2.20;;;;;;;13.31;44.38;99562.53;10362947;28;20228;-72
2023/12/25 09:32:48;;;;;;;2.30;2.07;;;;;;;12.90;45.38;99454.25;10354135;28;20354;-73
2023/12/25 09:37:50;;;;;;;2.13;1.97;;;;;;;9.21;51.11;99558.66;10364098;28;20231;-73
2023/12/25 09:42:52;;;;;;;2.63;2.50;;;;;;;11.68;47.57;99493.59;10360298;28;20780;-71
2023/12/25 09:47:54;;;;;;;2.70;2.50;;;;;;;11.30;48.59;99474.38;10361895;28;20319;-73
2023/12/25 09:52:56;;;;;;;2.20;2.10;;;;;;;10.91;48.36;99511.41;10352228;28;20244;-72
2023/12/25 09:58:00;;;;;;;2.30;2.20;;;;;;;12.37;46.82;99473.81;10359149;28;20334;-74
2023/12/25 10:03:03;;;;;;;3.30;3.00;;;;;;;10.86;49.54;99497.75;10351667;28;20585;-71
2023/12/25 10:08:05;;;;;;;2.50;2.30;;;;;;;11.85;47.08;99612.06;10361996;28;20821;-73
2023/12/25 10:13:07;;;;;;;2.67;2.47;;;;;;;12.70;46.47;99469.53;10352888;28;20293;-73
2023/12/25 10:18:08;;;;;;;2.50;2.40;;;;;;;13.00;46.13;99499.47;10358787;28;20609;-73
2023/12/25 10:23:14;;;;;;;2.40;2.30;;;;;;;11.56;49.29;99471.03;10353727;28;20388;-72
2023/12/25 10:28:28;;;;;;;2.60;2.50;;;;;;;11.13;49.03;99544.31;10352124;28;20738;-73
2023/12/25 10:33:31;;;;;;;3.27;2.97;;;;;;;11.23;49.21;99496.59;10351083;28;20236;-72
2023/12/25 10:38:37;;;;;;;3.23;2.93;;;;;;;9.78;50.63;99585.78;10360846;28;20237;-73
2023/12/25 10:43:40;;;;;;;3.07;2.50;;;;;;;10.72;50.51;99418.38;10354461;28;20340;-73
2023/12/25 10:48:44;;;;;;;6.20;5.40;;;;;;;11.48;49.58;99366.72;10351173;28;20373;-71
2023/12/25 10:53:48;;;;;;;2.40;2.20;;;;;;;11.49;48.63;99457.63;10350584;28;20746;-73
2023/12/25 10:58:51;;;;;;;3.00;2.80;;;;;;;10.40;49.60;99538.25;10353268;28;20308;-71
2023/12/25 11:06:13;;;;;;;2.57;2.37;;;;;;;8.43;56.42;99341.88;10466659;28;21244;-71
2023/12/25 11:11:15;;;;;;;6.00;2.70;;;;;;;9.64;51.97;99557.22;10436272;28;20931;-70
2023/12/25 11:16:17;;;;;;;2.83;2.63;;;;;;;9.98;52.17;99435.59;10434219;28;20238;-69
2023/12/25 11:21:28;;;;;;;2.80;2.60;;;;;;;7.92;55.60;99542.28;10434425;28;20255;-70
2023/12/25 11:26:31;;;;;;;3.07;2.87;;;;;;;10.51;50.86;99508.31;10437492;28;20232;-70
2023/12/25 11:31:46;;;;;;;3.10;2.90;;;;;;;9.77;52.31;99549.41;10432684;28;20239;-70
2023/12/25 11:36:51;;;;;;;2.67;2.47;;;;;;;10.17;53.34;99348.56;10435044;28;20311;-73
2023/12/25 11:41:54;;;;;;;3.00;2.70;;;;;;;10.10;53.19;99370.72;10432411;28;20786;-73
2023/12/25 11:47:02;;;;;;;3.00;2.90;;;;;;;8.88;56.18;99368.63;10431757;28;20227;-72
2023/12/25 11:52:04;;;;;;;4.27;3.10;;;;;;;9.96;53.35;99452.63;10431214;28;20234;-72
2023/12/25 11:57:17;;;;;;;2.93;2.63;;;;;;;10.67;52.90;99323.44;10432493;28;20232;-73
2023/12/25 12:02:19;;;;;;;2.60;2.40;;;;;;;8.78;56.75;99342.19;10430560;28;20875;-73
2023/12/25 12:07:21;;;;;;;3.17;2.97;;;;;;;9.99;52.11;99569.06;10437252;28;20267;-74
2023/12/25 12:12:22;;;;;;;2.70;2.50;;;;;;;10.30;52.12;99493.91;10434116;28;20237;-74
2023/12/25 12:17:24;;;;;;;2.50;2.40;;;;;;;8.80;56.08;99422.88;10399572;28;20271;-71
2023/12/25 12:22:26;;;;;;;2.23;2.13;;;;;;;10.26;52.23;99462.38;10403895;28;20733;-71
2023/12/25 12:27:28;;;;;;;2.77;2.50;;;;;;;11.73;49.72;99458.16;10405726;28;20235;-70
2023/12/25 12:32:30;;;;;;;2.43;2.23;;;;;;;8.89;53.82;99623.78;10406739;28;20316;-70
2023/12/25 12:37:32;;;;;;;2.67;2.47;;;;;;;10.51;51.68;99426.22;10407995;28;22979;-70
2023/12/25 12:42:35;;;;;;;3.70;2.80;;;;;;;12.76;48.61;99412.34;10405787;28;20228;-70
2023/12/25 12:47:37;;;;;;;2.10;2.00;;;;;;;9.59;51.97;99587.97;10404271;28;20321;-79
2023/12/25 12:52:39;;;;;;;2.20;2.10;;;;;;;9.34;52.18;99621.28;10400880;28;20224;-71
2023/12/25 12:57:41;;;;;;;2.17;2.07;;;;;;;11.38;48.96;99541.22;10408911;28;20232;-72
2023/12/25 13:02:43;;;;;;;3.13;2.83;;;;;;;11.37;50.51;99485.97;10357364;23;20671;-35
2023/12/25 13:07:45;;;;;;;2.93;2.63;;;;;;;11.16;50.39;99482.34;10323437;28;20249;-35
2023/12/25 13:12:46;;;;;;;3.23;2.17;;;;;;;12.14;48.40;99553.81;10327416;28;20233;-35
2023/12/25 13:17:48;;;;;;;5.13;2.50;;;;;;;11.29;49.27;99586.06;10329020;28;20277;-35
2023/12/25 13:22:50;;;;;;;2.27;2.07;;;;;;;10.25;50.58;99645.28;10319273;28;20291;-35
2023/12/25 13:27:53;;;;;;;2.63;2.17;;;;;;;12.77;47.60;99478.41;10327473;28;20256;-35
2023/12/25 13:32:56;;;;;;;2.67;2.53;;;;;;;12.87;47.31;99555.88;10333170;28;20233;-35
2023/12/25 13:37:57;;;;;;;3.07;2.20;;;;;;;11.61;48.42;99637.44;10328661;28;20230;-35
2023/12/25 13:42:59;;;;;;;2.50;2.40;;;;;;;12.49;47.06;99616.31;10333619;28;20273;-35
2023/12/25 13:48:01;;;;;;;2.50;2.33;;;;;;;13.24;46.29;99605.47;10330729;28;20233;-35
2023/12/25 13:53:03;;;;;;;2.80;2.60;;;;;;;13.91;44.83;99683.44;10326543;28;20470;-35
2023/12/25 13:58:05;;;;;;;2.80;2.60;;;;;;;13.62;45.22;99693.59;10330391;28;20317;-35
2023/12/25 14:03:07;;;;;;;2.37;2.20;;;;;;;12.91;45.96;99716.41;10328838;28;20765;-35
2023/12/25 14:08:09;;;;;;;2.47;2.27;;;;;;;13.27;46.43;99582.75;10328490;28;20242;-35
2023/12/25 14:13:11;;;;;;;2.70;2.50;;;;;;;13.26;46.02;99693.94;10325206;28;20715;-35
2023/12/25 14:18:13;;;;;;;2.47;2.27;;;;;;;13.13;46.95;99664.38;10323264;28;20317;-35
2023/12/25 14:23:16;;;;;;;2.53;2.10;;;;;;;12.67;46.93;99757.19;10321651;28;20237;-35
2023/12/25 14:28:18;;;;;;;2.20;2.10;;;;;;;13.63;46.13;99681.84;10333849;28;20249;-35
2023/12/25 14:33:19;;;;;;;1.80;1.70;;;;;;;12.72;47.57;99671.50;10317971;28;20276;-35
2023/12/25 14:38:21;;;;;;;2.67;2.30;;;;;;;14.02;46.15;99596.72;10322306;28;20234;-35
2023/12/25 14:43:23;;;;;;;1.90;1.80;;;;;;;13.88;45.98;99629.25;10330205;28;20257;-35
2023/12/25 14:48:25;;;;;;;2.20;2.10;;;;;;;13.49;46.37;99658.66;10324681;28;20261;-35
2023/12/25 14:53:27;;;;;;;2.00;1.90;;;;;;;13.63;47.22;99644.19;10326639;28;20241;-35
2023/12/25 14:58:28;;;;;;;2.80;2.60;;;;;;;13.07;48.54;99644.53;10326134;28;20242;-35
2023/12/25 15:05:13;;;;;;;4.30;3.43;;;;;;;11.48;51.77;99618.56;10441684;27;20795;-77
2023/12/25 15:10:14;;;;;;;2.30;2.20;;;;;;;11.61;51.82;99555.16;10340414;28;20238;-75
2023/12/25 15:15:16;;;;;;;2.30;2.20;;;;;;;11.16;52.83;99551.16;10327605;28;20249;-78
2023/12/25 15:20:18;;;;;;;2.30;2.20;;;;;;;10.84;52.87;99612.22;10350491;28;20257;-77
2023/12/25 15:25:20;;;;;;;2.00;1.90;;;;;;;11.25;53.01;99533.91;10351784;28;20653;-76
2023/12/25 15:30:21;;;;;;;2.50;2.30;;;;;;;11.39;52.28;99632.09;10352759;28;20291;-81
2023/12/25 15:35:24;;;;;;;2.80;2.70;;;;;;;12.09;51.57;99551.72;10353296;28;20683;-79
2023/12/25 15:40:27;;;;;;;2.30;2.10;;;;;;;12.01;50.76;99613.56;10355292;28;20253;-77
2023/12/25 15:45:31;;;;;;;2.60;2.40;;;;;;;11.49;51.81;99630.94;10348679;28;20328;-77
2023/12/25 15:50:33;;;;;;;2.77;2.57;;;;;;;11.67;52.29;99612.53;10341203;28;20287;-78
2023/12/25 15:55:35;;;;;;;3.07;2.60;;;;;;;11.52;52.09;99625.19;10343003;28;20233;-76
2023/12/25 16:00:37;;;;;;;2.80;2.70;;;;;;;12.61;50.58;99564.72;10348737;28;20331;-77
2023/12/25 16:05:38;;;;;;;2.60;2.40;;;;;;;12.26;51.18;99564.78;10344322;28;20270;-75
2023/12/25 16:10:40;;;;;;;2.77;2.67;;;;;;;11.95;52.04;99599.13;10347249;28;20300;-75
2023/12/25 16:15:42;;;;;;;3.13;2.93;;;;;;;11.00;53.80;99601.28;10327307;28;20230;-75
2023/12/25 16:20:44;;;;;;;2.47;2.27;;;;;;;11.93;51.33;99641.38;10318509;28;20832;-76
2023/12/25 16:25:46;;;;;;;2.67;2.50;;;;;;;11.99;52.34;99540.53;10312776;28;20230;-74
2023/12/25 16:30:47;;;;;;;2.77;2.60;;;;;;;11.76;51.75;99648.06;10321176;28;20341;-76
2023/12/25 16:35:49;;;;;;;2.60;2.40;;;;;;;11.48;51.77;99698.97;10320873;28;20617;-75
2023/12/25 16:40:51;;;;;;;2.30;2.20;;;;;;;11.76;52.14;99568.50;10316320;28;20312;-74
2023/12/25 16:45:53;;;;;;;2.33;2.23;;;;;;;11.55;51.81;99646.25;10317979;28;20238;-75
2023/12/25 16:50:55;;;;;;;2.77;2.60;;;;;;;10.82;53.64;99644.53;10320988;28;20227;-74
2023/12/25 16:55:56;;;;;;;2.30;2.20;;;;;;;10.65;55.20;99520.81;10330536;28;20221;-73
2023/12/25 17:00:58;;;;;;;2.80;2.60;;;;;;;11.43;52.26;99619.16;10322886;28;20238;-75
2023/12/25 17:06:00;;;;;;;2.33;2.23;;;;;;;10.75;54.33;99587.44;10318918;28;20611;-75
2023/12/25 17:11:02;;;;;;;2.33;2.23;;;;;;;12.25;51.24;99585.44;10316308;28;20222;-75
2023/12/25 17:16:04;;;;;;;2.00;1.90;;;;;;;11.34;52.30;99679.22;10321051;28;20276;-75
2023/12/25 17:21:07;;;;;;;2.63;2.43;;;;;;;11.48;52.75;99578.38;10321371;28;20734;-75
2023/12/25 17:26:09;;;;;;;2.90;2.80;;;;;;;11.38;52.65;99617.03;10315612;28;20312;-75
2023/12/25 17:31:11;;;;;;;2.70;2.50;;;;;;;12.53;50.27;99589.88;10322266;28;20238;-75
2023/12/25 17:36:12;;;;;;;3.23;3.03;;;;;;;12.36;50.19;99659.97;10310973;28;20238;-74
2023/12/25 17:41:14;;;;;;;3.00;2.70;;;;;;;10.91;51.54;99752.31;10319896;28;20324;-75
2023/12/25 17:46:16;;;;;;;2.50;2.40;;;;;;;11.43;51.66;99676.22;10317437;28;20260;-74
2023/12/25 17:51:19;;;;;;;2.33;2.23;;;;;;;11.61;51.34;99618.69;10315007;28;20229;-77
2023/12/25 17:56:21;;;;;;;3.00;2.80;;;;;;;12.08;50.25;99624.34;10320148;28;20236;-80
2023/12/25 18:01:22;;;;;;;2.80;2.60;;;;;;;12.72;49.12;99615.97;10322071;28;20230;-77
2023/12/25 18:06:26;;;;;;;4.27;3.00;;;;;;;11.41;50.45;99779.28;10320245;28;20589;-77
2023/12/25 18:11:28;;;;;;;3.00;2.80;;;;;;;10.96;51.35;99723.16;10319290;28;20360;-75
2023/12/25 18:16:30;;;;;;;2.53;2.33;;;;;;;11.66;50.35;99650.25;10319215;28;20325;-71
2023/12/25 18:21:31;;;;;;;2.60;2.40;;;;;;;11.28;49.97;99745.13;10317150;28;20238;-73
2023/12/25 18:26:33;;;;;;;3.00;2.77;;;;;;;11.60;49.21;99784.00;10314578;28;20233;-72
2023/12/25 18:31:35;;;;;;;2.30;2.20;;;;;;;12.01;49.03;99699.38;10314086;28;20235;-72
2023/12/25 18:36:37;;;;;;;2.80;2.60;;;;;;;12.70;48.22;99668.19;10318238;28;20238;-72
2023/12/25 18:41:38;;;;;;;3.00;2.80;;;;;;;12.13;49.12;99641.50;10317760;28;20226;-73
2023/12/25 18:46:40;;;;;;;3.60;2.87;;;;;;;12.36;48.44;99646.56;10314570;28;20246;-73
2023/12/25 18:51:42;;;;;;;2.77;2.57;;;;;;;11.91;49.58;99680.13;10311790;28;20317;-72
2023/12/25 18:56:44;;;;;;;4.33;3.87;;;;;;;12.15;48.98;99646.69;10311859;28;20239;-72
2023/12/25 19:01:46;;;;;;;2.53;2.40;;;;;;;12.11;48.91;99710.59;10339225;23;20654;-36
2023/12/25 19:06:47;;;;;;;2.90;2.70;;;;;;;11.27;50.21;99711.31;10323161;28;20329;-36
2023/12/25 19:11:49;;;;;;;2.93;2.73;;;;;;;11.59;49.97;99650.19;10320023;28;20604;-37
2023/12/25 19:16:51;;;;;;;2.90;2.70;;;;;;;11.33;50.55;99680.28;10324641;28;20230;-34
2023/12/25 19:21:53;;;;;;;2.60;2.23;;;;;;;12.27;47.65;99798.00;10322229;28;20597;-35
2023/12/25 19:26:56;;;;;;;2.83;2.70;;;;;;;12.52;48.26;99642.75;10322955;28;20338;-35
2023/12/25 19:31:58;;;;;;;2.67;2.47;;;;;;;11.73;49.16;99686.00;10323483;28;20266;-35
2023/12/25 19:37:00;;;;;;;4.50;2.60;;;;;;;11.53;49.70;99702.72;10324758;28;20252;-36
2023/12/25 19:42:02;;;;;;;3.33;2.50;;;;;;;12.43;48.50;99613.56;10321598;28;20846;-34
2023/12/25 19:47:05;;;;;;;2.73;2.53;;;;;;;11.96;48.89;99685.75;10323026;28;20237;-36
2023/12/25 19:52:08;;;;;;;3.10;2.90;;;;;;;12.13;48.58;99681.75;10326534;28;20230;-35
2023/12/25 19:57:10;;;;;;;2.90;2.70;;;;;;;11.90;48.37;99708.00;10328604;28;20230;-33
2023/12/25 20:02:11;;;;;;;3.40;2.83;;;;;;;12.94;46.95;99666.84;10328882;28;20313;-34
2023/12/25 20:07:13;;;;;;;2.80;2.60;;;;;;;13.12;46.57;99652.81;10329781;28;20317;-36
2023/12/25 20:12:16;;;;;;;2.40;2.20;;;;;;;11.75;47.73;99788.50;10323958;28;20368;-34
2023/12/25 20:17:18;;;;;;;3.57;2.87;;;;;;;12.69;46.81;99679.97;10325213;28;20661;-37
2023/12/25 20:22:20;;;;;;;3.40;3.10;;;;;;;13.30;45.60;99657.63;10321269;28;20241;-35
2023/12/25 20:27:22;;;;;;;4.03;3.00;;;;;;;13.20;45.03;99692.09;10330948;28;20230;-38
2023/12/25 20:32:24;;;;;;;3.80;2.97;;;;;;;12.52;45.88;99728.63;10326425;28;20327;-35
2023/12/25 20:37:30;;;;;;;3.40;2.70;;;;;;;12.45;45.39;99759.09;10324620;28;20240;-37
2023/12/25 20:42:33;;;;;;;3.20;2.70;;;;;;;12.31;45.27;99758.19;10321075;28;20241;-36
2023/12/25 20:47:37;;;;;;;3.07;2.67;;;;;;;11.52;47.53;99668.06;10324220;28;20270;-37
2023/12/25 20:52:39;;;;;;;5.77;2.97;;;;;;;12.39;46.15;99615.00;10320916;28;20627;-34
2023/12/25 20:57:41;;;;;;;3.20;3.00;;;;;;;11.60;46.70;99670.59;10323435;28;20253;-34
2023/12/25 21:02:43;;;;;;;6.23;3.20;;;;;;;11.73;46.64;99675.28;10336774;28;20316;-35
2023/12/25 21:07:45;;;;;;;2.50;2.30;;;;;;;10.42;48.67;99629.84;10315580;28;20286;-36
2023/12/25 21:12:47;;;;;;;3.03;2.73;;;;;;;11.71;46.75;99619.19;10323447;28;20262;-36
2023/12/25 21:17:48;;;;;;;3.70;2.93;;;;;;;11.53;47.24;99574.09;10316664;28;20261;-35
2023/12/25 21:22:51;;;;;;;4.07;2.97;;;;;;;11.19;47.42;99637.28;10328338;28;20316;-36
2023/12/25 21:27:53;;;;;;;3.43;2.73;;;;;;;11.37;47.54;99582.41;10332562;28;20242;-36
2023/12/25 21:32:56;;;;;;;2.80;2.50;;;;;;;12.27;45.67;99590.59;10337989;28;20238;-34
2023/12/25 21:37:58;;;;;;;2.97;2.73;;;;;;;10.92;47.15;99737.09;10329604;28;20242;-36
2023/12/25 21:43:01;;;;;;;3.50;2.50;;;;;;;12.31;45.54;99592.66;10333926;28;20689;-36
2023/12/25 21:48:04;;;;;;;2.63;2.50;;;;;;;11.43;46.47;99678.91;10325576;28;20233;-34
2023/12/25 21:53:06;;;;;;;3.40;2.90;;;;;;;10.84;47.36;99655.88;10315309;28;20264;-35
2023/12/25 21:58:08;;;;;;;3.20;2.50;;;;;;;10.85;47.71;99632.63;10332125;28;20234;-36
2023/12/25 22:03:09;;;;;;;2.30;2.20;;;;;;;10.74;47.94;99657.19;10324743;28;20716;-34
2023/12/25 22:08:11;;;;;;;2.77;2.57;;;;;;;10.37;47.93;99736.56;10323525;28;20240;-35
2023/12/25 22:13:13;;;;;;;2.53;2.33;;;;;;;12.53;45.48;99555.00;10329596;28;20226;-34
2023/12/25 22:18:16;;;;;;;2.30;2.20;;;;;;;11.64;47.03;99564.69;10320406;28;20242;-35
2023/12/25 22:23:18;;;;;;;2.50;2.30;;;;;;;12.05;46.23;99573.81;10331045;28;20246;-43
2023/12/25 22:28:20;;;;;;;3.13;2.70;;;;;;;11.42;46.39;99690.66;10336549;28;20237;-42
2023/12/25 22:33:21;;;;;;;2.67;2.47;;;;;;;10.89;47.87;99609.81;10323225;28;20230;-44
2023/12/25 22:38:24;;;;;;;2.97;2.77;;;;;;;10.28;47.93;99755.38;10326667;28;20234;-43
2023/12/25 22:43:25;;;;;;;2.27;2.17;;;;;;;11.65;46.52;99640.59;10336041;28;20260;-42
2023/12/25 22:48:27;;;;;;;3.33;2.20;;;;;;;11.52;46.74;99651.97;10328165;28;20252;-43
2023/12/25 22:53:29;;;;;;;3.10;2.90;;;;;;;10.32;48.13;99735.25;10327620;28;20292;-43
2023/12/25 22:58:31;;;;;;;2.70;2.50;;;;;;;11.85;46.07;99652.28;10330319;28;20230;-43
2023/12/25 23:03:36;;;;;;;2.93;2.73;;;;;;;12.43;45.40;99568.75;10334770;28;20242;-43
2023/12/25 23:08:38;;;;;;;2.87;2.57;;;;;;;10.92;47.95;99581.81;10328205;28;20323;-42
2023/12/25 23:13:40;;;;;;;4.37;2.63;;;;;;;9.49;48.60;99774.41;10331078;28;20225;-43
2023/12/25 23:18:42;;;;;;;3.23;2.60;;;;;;;10.89;46.80;99658.00;10303324;28;20274;-42
2023/12/25 23:23:44;;;;;;;2.60;2.40;;;;;;;10.12;49.52;99480.13;10323336;28;20849;-42
2023/12/25 23:28:46;;;;;;;3.67;2.80;;;;;;;10.35;49.00;99519.28;10346993;28;20587;-43
2023/12/25 23:33:49;;;;;;;2.53;2.33;;;;;;;8.46;50.85;99669.50;10332953;28;20237;-43